Time;durP1;ratioP1;P1;durP2;ratioP2;P2;SDS_P1;SDS_P2;PMS_P1;PMS_P2;Temp;Humidity;BMP_temperature;BMP_pressure;BME280_temperature;BME280_humidity;BME280_pressure;Samples;Min_cycle;Max_cycle;Signal;HPM_P1;HPM_P2
2021/01/16 00:00:41;;;;;;;;;61.67;54.00;;;;;;;;5059639;28;9611;-84
2021/01/16 00:03:09;;;;;;;;;54.67;49.67;;;;;;;;5059740;28;8907;-83
2021/01/16 00:05:37;;;;;;;;;51.00;47.00;;;;;;;;5061236;28;9688;-82
2021/01/16 00:08:06;;;;;;;;;49.67;42.00;;;;;;;;5062693;28;8907;-79
2021/01/16 00:10:34;;;;;;;;;47.00;44.33;;;;;;;;5053516;28;8870;-85
2021/01/16 00:13:01;;;;;;;;;55.00;50.67;;;;;;;;5060344;28;8871;-84
2021/01/16 00:15:28;;;;;;;;;51.67;48.33;;;;;;;;5059213;28;8862;-80
2021/01/16 00:18:00;;;;;;;;;48.33;46.67;;;;;;;;5057750;28;8880;-86
2021/01/16 00:20:27;;;;;;;;;46.67;44.67;;;;;;;;5048815;28;8914;-84
2021/01/16 00:22:54;;;;;;;;;57.00;51.00;;;;;;;;5055269;28;8932;-87
2021/01/16 00:25:23;;;;;;;;;53.67;49.00;;;;;;;;5065551;28;8889;-83
2021/01/16 00:27:50;;;;;;;;;33.00;32.00;;;;;;;;5062820;28;8864;-85
2021/01/16 00:30:18;;;;;;;;;41.33;39.00;;;;;;;;5052884;28;9008;-85
2021/01/16 00:32:46;;;;;;;;;49.67;44.33;;;;;;;;5058503;28;8864;-85
2021/01/16 00:35:16;;;;;;;;;40.67;40.67;;;;;;;;5057479;28;8856;-86
2021/01/16 00:37:44;;;;;;;;;43.67;40.67;;;;;;;;5059426;28;8995;-84
2021/01/16 00:40:13;;;;;;;;;41.00;41.00;;;;;;;;5045033;28;8889;-86
2021/01/16 00:42:41;;;;;;;;;32.33;32.33;;;;;;;;5048591;28;8900;-87
2021/01/16 00:45:10;;;;;;;;;34.67;34.67;;;;;;;;5063068;28;8856;-85
2021/01/16 00:47:37;;;;;;;;;45.00;42.67;;;;;;;;5064267;28;8886;-87
2021/01/16 00:50:05;;;;;;;;;44.33;39.33;;;;;;;;5063147;28;8902;-80
2021/01/16 00:52:32;;;;;;;;;33.00;33.00;;;;;;;;5061198;28;8898;-84
2021/01/16 00:54:59;;;;;;;;;36.00;35.33;;;;;;;;5068663;28;8906;-81
2021/01/16 00:57:27;;;;;;;;;38.33;35.00;;;;;;;;5065010;28;8902;-85
2021/01/16 00:59:55;;;;;;;;;29.00;29.00;;;;;;;;5066547;28;8910;-87
2021/01/16 01:02:23;;;;;;;;;36.00;36.00;;;;;;;;5049764;28;8809;-80
2021/01/16 01:04:49;;;;;;;;;35.33;34.67;;;;;;;;5060581;28;8890;-86
2021/01/16 01:07:17;;;;;;;;;34.00;34.00;;;;;;;;5062448;28;8880;-87
2021/01/16 01:09:44;;;;;;;;;37.00;36.67;;;;;;;;5063879;28;8867;-81
2021/01/16 01:12:12;;;;;;;;;31.00;31.00;;;;;;;;5039448;28;8858;-85
2021/01/16 01:14:40;;;;;;;;;26.33;26.33;;;;;;;;5056970;28;8926;-82
2021/01/16 01:17:15;;;;;;;;;27.67;27.67;;;;;;;;5056908;28;8878;-83
2021/01/16 01:19:42;;;;;;;;;29.33;29.33;;;;;;;;5060101;28;8887;-84
2021/01/16 01:22:10;;;;;;;;;36.33;34.00;;;;;;;;5057318;28;10199;-88
2021/01/16 01:24:37;;;;;;;;;27.33;27.33;;;;;;;;5066348;28;8874;-82
2021/01/16 01:27:05;;;;;;;;;27.67;27.67;;;;;;;;5045597;28;9609;-86
2021/01/16 01:29:32;;;;;;;;;27.33;27.33;;;;;;;;5055632;28;8871;-85
2021/01/16 01:31:59;;;;;;;;;21.00;21.00;;;;;;;;5058841;28;9780;-85
2021/01/16 01:34:27;;;;;;;;;24.67;24.67;;;;;;;;5056976;28;9630;-85
2021/01/16 01:36:54;;;;;;;;;28.00;28.00;;;;;;;;5062660;28;8855;-89
2021/01/16 01:39:21;;;;;;;;;30.67;30.67;;;;;;;;5050794;28;8933;-84
2021/01/16 01:41:48;;;;;;;;;22.33;20.67;;;;;;;;5058646;28;8974;-85
2021/01/16 01:44:15;;;;;;;;;27.00;26.50;;;;;;;;5046800;28;8894;-88
2021/01/16 01:46:41;;;;;;;;;28.67;27.67;;;;;;;;5060578;28;8872;-90
2021/01/16 01:49:08;;;;;;;;;29.00;29.00;;;;;;;;5059825;28;8854;-87
2021/01/16 01:51:36;;;;;;;;;29.00;27.75;;;;;;;;5046569;28;8884;-88
2021/01/16 01:54:03;;;;;;;;;28.75;28.75;;;;;;;;5059037;28;8921;-85
2021/01/16 01:56:30;;;;;;;;;28.25;28.25;;;;;;;;5055739;28;8856;-83
2021/01/16 01:58:59;;;;;;;;;23.00;23.00;;;;;;;;5057614;28;8878;-84
2021/01/16 02:01:29;;;;;;;;;23.50;20.50;;;;;;;;5053137;28;8836;-91
2021/01/16 02:03:57;;;;;;;;;37.75;35.25;;;;;;;;5054384;28;8890;-89
2021/01/16 02:06:23;;;;;;;;;25.25;25.00;;;;;;;;5062659;28;8887;-87
2021/01/16 02:08:51;;;;;;;;;37.00;36.00;;;;;;;;5062055;28;8873;-87
2021/01/16 02:11:18;;;;;;;;;30.75;30.75;;;;;;;;5054464;28;8871;-82
2021/01/16 02:13:45;;;;;;;;;34.75;34.75;;;;;;;;5062401;28;8865;-88
2021/01/16 02:16:22;;;;;;;;;29.75;29.75;;;;;;;;5054846;28;8847;-90
2021/01/16 02:18:51;;;;;;;;;31.75;31.75;;;;;;;;5058401;28;8886;-85
2021/01/16 02:21:20;;;;;;;;;40.25;40.25;;;;;;;;5045201;28;8842;-84
2021/01/16 02:23:51;;;;;;;;;29.00;29.00;;;;;;;;5062460;28;8868;-86
2021/01/16 02:26:50;;;;;;;;;29.50;29.50;;;;;;;;5044741;28;8857;-87
2021/01/16 02:29:18;;;;;;;;;35.50;35.50;;;;;;;;5054564;28;8889;-89
2021/01/16 02:31:50;;;;;;;;;42.75;38.75;;;;;;;;5059798;28;8988;-91
2021/01/16 02:34:19;;;;;;;;;39.00;35.50;;;;;;;;5062831;28;9606;-88
2021/01/16 02:37:25;;;;;;;;;39.25;33.75;;;;;;;;5042074;28;8884;-88
2021/01/16 02:39:57;;;;;;;;;34.00;33.00;;;;;;;;5049295;28;8900;-88
2021/01/16 02:42:32;;;;;;;;;29.75;29.75;;;;;;;;5060458;28;8850;-84
2021/01/16 02:45:05;;;;;;;;;42.25;38.00;;;;;;;;5059069;28;8875;-85
2021/01/16 02:47:40;;;;;;;;;33.33;33.00;;;;;;;;5054678;28;8874;-84
2021/01/16 02:50:09;;;;;;;;;38.75;38.75;;;;;;;;5060023;28;8868;-86
2021/01/16 02:52:40;;;;;;;;;41.75;39.75;;;;;;;;5065306;28;8880;-88
2021/01/16 02:55:09;;;;;;;;;51.50;48.00;;;;;;;;5061363;28;9502;-84
2021/01/16 02:57:36;;;;;;;;;23.67;22.33;;;;;;;;5058980;28;8871;-86
2021/01/16 03:00:07;;;;;;;;;44.33;42.67;;;;;;;;5062447;28;8928;-85
2021/01/16 03:02:34;;;;;;;;;41.75;40.25;;;;;;;;5055881;28;9527;-82
2021/01/16 03:05:01;;;;;;;;;49.25;45.50;;;;;;;;5056720;28;8893;-85
2021/01/16 03:07:29;;;;;;;;;47.50;44.75;;;;;;;;5055889;28;8880;-86
2021/01/16 03:09:57;;;;;;;;;52.00;43.33;;;;;;;;5062821;28;8851;-87
2021/01/16 03:12:27;;;;;;;;;31.00;31.00;;;;;;;;5054081;28;8880;-90
2021/01/16 03:14:55;;;;;;;;;51.25;48.25;;;;;;;;5064961;28;8895;-88
2021/01/16 03:17:26;;;;;;;;;63.25;53.50;;;;;;;;5051993;28;8887;-85
2021/01/16 03:19:53;;;;;;;;;51.25;47.00;;;;;;;;5055500;28;8903;-86
2021/01/16 03:22:22;;;;;;;;;47.50;45.50;;;;;;;;5046361;28;8964;-84
2021/01/16 03:24:50;;;;;;;;;65.50;53.75;;;;;;;;5062061;28;8872;-85
2021/01/16 03:27:17;;;;;;;;;51.50;47.50;;;;;;;;5060615;28;8856;-86
2021/01/16 03:29:44;;;;;;;;;42.00;42.00;;;;;;;;5056037;28;8894;-84
2021/01/16 03:32:12;;;;;;;;;43.25;42.00;;;;;;;;5045742;28;8848;-82
2021/01/16 03:34:41;;;;;;;;;42.00;42.00;;;;;;;;5059181;28;8844;-87
2021/01/16 03:37:08;;;;;;;;;59.75;53.50;;;;;;;;5053343;28;8861;-85
2021/01/16 03:39:35;;;;;;;;;50.00;46.67;;;;;;;;5061585;28;8880;-86
2021/01/16 03:42:03;;;;;;;;;42.67;42.67;;;;;;;;5061825;28;8877;-86
2021/01/16 03:44:30;;;;;;;;;45.33;43.33;;;;;;;;5050082;28;8923;-86
2021/01/16 03:46:57;;;;;;;;;37.00;33.00;;;;;;;;5043552;28;8854;-84
2021/01/16 03:49:24;;;;;;;;;41.33;38.67;;;;;;;;5063558;28;8907;-83
2021/01/16 03:51:51;;;;;;;;;40.67;36.00;;;;;;;;5057345;28;8888;-89
2021/01/16 03:54:18;;;;;;;;;34.67;34.67;;;;;;;;5041618;28;8914;-88
2021/01/16 03:56:45;;;;;;;;;36.33;36.33;;;;;;;;5058468;28;8967;-91
2021/01/16 04:11:59;;;;;;;;;46.00;39.00;;;;;;;;5018193;28;8813;-83
2021/01/16 04:14:26;;;;;;;;;40.33;39.33;;;;;;;;5065104;28;9618;-83
2021/01/16 04:16:53;;;;;;;;;36.00;33.00;;;;;;;;5056823;28;8860;-82
2021/01/16 04:19:20;;;;;;;;;41.67;39.67;;;;;;;;5061819;28;8884;-82
2021/01/16 04:21:48;;;;;;;;;39.33;39.33;;;;;;;;5040312;28;8935;-84
2021/01/16 04:24:15;;;;;;;;;44.67;44.33;;;;;;;;5044540;28;9650;-89
2021/01/16 04:26:42;;;;;;;;;50.00;46.00;;;;;;;;5064758;28;8875;-91
2021/01/16 04:29:10;;;;;;;;;50.00;48.33;;;;;;;;5050265;28;8894;-84
2021/01/16 04:31:37;;;;;;;;;42.00;42.00;;;;;;;;5037774;28;8828;-87
2021/01/16 04:34:04;;;;;;;;;62.33;50.33;;;;;;;;5062037;28;8879;-84
2021/01/16 04:36:31;;;;;;;;;49.33;47.33;;;;;;;;5049321;28;8846;-89
2021/01/16 04:38:58;;;;;;;;;41.33;40.00;;;;;;;;5060584;28;8874;-90
2021/01/16 04:41:27;;;;;;;;;40.33;40.33;;;;;;;;5035346;28;8879;-85
2021/01/16 04:43:54;;;;;;;;;45.67;44.33;;;;;;;;5052049;28;8950;-86
2021/01/16 04:46:22;;;;;;;;;50.33;47.67;;;;;;;;5048148;28;8902;-85
2021/01/16 04:48:54;;;;;;;;;45.00;42.33;;;;;;;;5055436;28;8870;-84
2021/01/16 04:51:22;;;;;;;;;30.00;30.00;;;;;;;;5047151;28;9622;-82
2021/01/16 04:53:50;;;;;;;;;55.67;48.33;;;;;;;;5055610;28;8866;-82
2021/01/16 04:56:17;;;;;;;;;53.00;47.33;;;;;;;;5057796;28;8890;-83
2021/01/16 04:58:44;;;;;;;;;45.00;44.33;;;;;;;;5060127;28;8870;-87
2021/01/16 05:01:11;;;;;;;;;47.33;45.67;;;;;;;;5054810;28;8887;-90
2021/01/16 05:03:41;;;;;;;;;47.67;46.33;;;;;;;;5064409;28;9596;-86
2021/01/16 05:06:10;;;;;;;;;39.67;39.67;;;;;;;;5048864;28;8894;-85
2021/01/16 05:08:42;;;;;;;;;42.33;42.00;;;;;;;;5042665;28;10143;-88
2021/01/16 05:11:17;;;;;;;;;46.67;45.00;;;;;;;;5060366;28;8857;-86
2021/01/16 05:13:45;;;;;;;;;45.00;39.00;;;;;;;;5065288;28;8873;-86
2021/01/16 05:16:14;;;;;;;;;54.33;47.33;;;;;;;;5054263;28;8887;-83
2021/01/16 05:18:43;;;;;;;;;41.00;38.33;;;;;;;;5059315;28;8863;-85
2021/01/16 05:21:12;;;;;;;;;49.00;45.00;;;;;;;;5061632;28;8865;-86
2021/01/16 05:23:43;;;;;;;;;45.33;44.33;;;;;;;;5050682;28;8873;-82
2021/01/16 05:26:10;;;;;;;;;48.67;45.00;;;;;;;;5062372;28;8868;-85
2021/01/16 05:28:38;;;;;;;;;48.75;46.25;;;;;;;;5056730;28;8984;-83
2021/01/16 05:31:07;;;;;;;;;60.25;52.00;;;;;;;;5062562;28;8837;-79
2021/01/16 05:33:46;;;;;;;;;52.75;49.50;;;;;;;;5061914;28;8956;-85
2021/01/16 05:36:13;;;;;;;;;51.50;45.75;;;;;;;;5051366;28;8923;-84
2021/01/16 05:38:41;;;;;;;;;47.00;45.50;;;;;;;;5040408;28;8988;-80
2021/01/16 05:41:09;;;;;;;;;59.00;53.00;;;;;;;;5057854;28;8874;-84
2021/01/16 05:43:38;;;;;;;;;24.75;24.00;;;;;;;;5059725;28;8904;-85
2021/01/16 05:46:07;;;;;;;;;54.00;49.50;;;;;;;;5067987;28;8853;-82
2021/01/16 05:48:35;;;;;;;;;53.00;48.25;;;;;;;;5071366;28;8898;-83
2021/01/16 05:51:04;;;;;;;;;48.67;47.00;;;;;;;;5064252;28;8883;-80
2021/01/16 05:53:31;;;;;;;;;55.50;49.50;;;;;;;;5076921;28;8879;-80
2021/01/16 05:55:59;;;;;;;;;55.00;49.67;;;;;;;;5063056;28;9630;-80
2021/01/16 05:58:32;;;;;;;;;52.50;49.00;;;;;;;;5046682;28;8888;-79
2021/01/16 06:01:04;;;;;;;;;49.67;46.67;;;;;;;;5039185;28;8823;-79
2021/01/16 06:03:32;;;;;;;;;16.50;14.50;;;;;;;;5058610;28;9618;-79
2021/01/16 06:05:59;;;;;;;;;52.00;48.00;;;;;;;;5063469;28;8865;-80
2021/01/16 06:08:27;;;;;;;;;55.67;48.00;;;;;;;;5036267;28;8959;-80
2021/01/16 06:10:55;;;;;;;;;52.00;48.00;;;;;;;;5060596;28;8869;-80
2021/01/16 06:13:24;;;;;;;;;53.75;50.00;;;;;;;;5058025;28;8879;-82
2021/01/16 06:15:52;;;;;;;;;45.25;44.50;;;;;;;;5063965;28;8936;-81
2021/01/16 06:18:23;;;;;;;;;41.33;39.67;;;;;;;;5065104;28;8888;-81
2021/01/16 06:20:52;;;;;;;;;54.00;46.67;;;;;;;;5060566;28;8862;-80
2021/01/16 06:23:21;;;;;;;;;49.67;47.67;;;;;;;;5062666;28;9032;-80
2021/01/16 06:25:54;;;;;;;;;44.67;43.33;;;;;;;;5055951;28;8928;-81
2021/01/16 06:28:23;;;;;;;;;47.33;45.67;;;;;;;;5063029;28;8904;-81
2021/01/16 06:30:55;;;;;;;;;40.00;38.67;;;;;;;;5062116;28;8849;-80
2021/01/16 06:33:24;;;;;;;;;36.00;33.67;;;;;;;;5052862;28;9437;-82
2021/01/16 06:35:56;;;;;;;;;45.33;44.33;;;;;;;;5063058;28;8884;-80
2021/01/16 06:38:31;;;;;;;;;41.67;41.00;;;;;;;;5061302;28;8840;-80
2021/01/16 06:41:12;;;;;;;;;40.67;40.00;;;;;;;;5057379;28;8981;-79
2021/01/16 06:43:40;;;;;;;;;39.67;39.67;;;;;;;;5052890;28;9008;-80
2021/01/16 06:46:09;;;;;;;;;41.67;41.67;;;;;;;;5050562;28;8873;-78
2021/01/16 06:48:41;;;;;;;;;42.00;37.67;;;;;;;;5060113;28;8868;-79
2021/01/16 06:51:11;;;;;;;;;48.67;45.33;;;;;;;;5056736;28;8868;-81
2021/01/16 06:53:38;;;;;;;;;44.33;42.33;;;;;;;;5052824;28;8911;-77
2021/01/16 06:56:06;;;;;;;;;45.00;42.33;;;;;;;;5055439;28;8981;-76
2021/01/16 06:58:43;;;;;;;;;49.00;45.00;;;;;;;;5056378;28;8900;-78
2021/01/16 07:01:11;;;;;;;;;39.67;39.67;;;;;;;;5063211;28;8814;-77
2021/01/16 07:03:41;;;;;;;;;42.33;42.33;;;;;;;;5057822;28;8953;-78
2021/01/16 07:06:08;;;;;;;;;43.33;40.00;;;;;;;;5058169;28;9528;-77
2021/01/16 07:08:35;;;;;;;;;35.00;35.00;;;;;;;;5060729;28;8902;-76
2021/01/16 07:11:02;;;;;;;;;46.00;44.67;;;;;;;;5061665;28;8876;-76
2021/01/16 07:13:32;;;;;;;;;39.33;39.33;;;;;;;;5051353;28;8863;-76
2021/01/16 07:16:01;;;;;;;;;37.67;37.67;;;;;;;;5061786;28;9644;-76
2021/01/16 07:18:29;;;;;;;;;54.67;47.33;;;;;;;;5050489;28;8892;-81
2021/01/16 07:20:59;;;;;;;;;48.33;44.33;;;;;;;;5060266;28;8870;-80
2021/01/16 07:23:27;;;;;;;;;40.33;40.33;;;;;;;;5059600;28;8882;-77
2021/01/16 07:25:54;;;;;;;;;43.00;43.00;;;;;;;;5053950;28;8852;-80
2021/01/16 07:28:22;;;;;;;;;42.33;42.33;;;;;;;;5052248;28;8867;-80
2021/01/16 07:30:50;;;;;;;;;58.00;49.00;;;;;;;;5058837;28;8823;-77
2021/01/16 07:33:18;;;;;;;;;36.33;36.33;;;;;;;;5033182;28;8891;-78
2021/01/16 07:35:49;;;;;;;;;45.67;42.67;;;;;;;;5044809;28;8958;-79
2021/01/16 07:38:17;;;;;;;;;45.00;45.00;;;;;;;;5053735;28;8833;-81
2021/01/16 07:40:46;;;;;;;;;53.33;47.33;;;;;;;;5054982;28;8887;-81
2021/01/16 07:43:41;;;;;;;;;42.67;42.33;;;;;;;;5053708;28;8869;-80
2021/01/16 07:46:11;;;;;;;;;43.67;43.67;;;;;;;;5046100;28;8859;-82
2021/01/16 07:48:50;;;;;;;;;30.67;28.67;;;;;;;;5057403;28;8903;-77
2021/01/16 07:51:18;;;;;;;;;58.67;51.67;;;;;;;;5059639;28;8877;-79
2021/01/16 07:53:45;;;;;;;;;42.67;42.33;;;;;;;;5056101;28;8888;-80
2021/01/16 07:56:22;;;;;;;;;52.00;48.00;;;;;;;;5059779;28;8862;-84
2021/01/16 07:59:20;;;;;;;;;56.33;48.67;;;;;;;;5052196;28;8888;-82
2021/01/16 08:02:14;;;;;;;;;52.33;44.33;;;;;;;;5064150;28;8804;-82
2021/01/16 08:04:50;;;;;;;;;44.33;44.33;;;;;;;;5062398;28;8882;-80
2021/01/16 08:07:26;;;;;;;;;43.67;42.33;;;;;;;;5070238;28;9603;-82
2021/01/16 08:09:58;;;;;;;;;31.00;31.00;;;;;;;;5054495;28;8865;-82
2021/01/16 08:12:27;;;;;;;;;42.67;42.67;;;;;;;;5052161;28;8963;-80
2021/01/16 08:14:54;;;;;;;;;40.00;36.00;;;;;;;;5047374;28;8931;-80
2021/01/16 08:17:25;;;;;;;;;42.33;42.33;;;;;;;;5064964;28;8893;-82
2021/01/16 08:20:08;;;;;;;;;43.33;43.33;;;;;;;;5063944;28;9050;-83
2021/01/16 08:22:39;;;;;;;;;34.67;34.67;;;;;;;;5060837;28;8852;-83
2021/01/16 08:25:08;;;;;;;;;43.33;43.33;;;;;;;;5060504;28;8853;-84
2021/01/16 08:27:36;;;;;;;;;34.67;34.67;;;;;;;;5056920;28;8879;-84
2021/01/16 08:30:11;;;;;;;;;41.00;39.33;;;;;;;;5051142;28;8912;-81
2021/01/16 08:32:56;;;;;;;;;38.67;38.67;;;;;;;;5038785;28;8803;-81
2021/01/16 08:35:26;;;;;;;;;37.67;36.33;;;;;;;;5040870;28;8884;-82
2021/01/16 08:37:54;;;;;;;;;35.33;33.67;;;;;;;;5061110;28;8904;-86
2021/01/16 08:40:35;;;;;;;;;35.33;34.33;;;;;;;;5051457;28;8867;-82
2021/01/16 08:43:02;;;;;;;;;40.67;39.00;;;;;;;;5061306;28;9650;-82
2021/01/16 08:45:29;;;;;;;;;35.67;35.67;;;;;;;;5064342;28;8857;-82
2021/01/16 08:48:01;;;;;;;;;34.67;31.33;;;;;;;;5057532;28;8878;-88
2021/01/16 08:50:33;;;;;;;;;43.00;42.33;;;;;;;;5060523;28;8891;-82
2021/01/16 08:53:25;;;;;;;;;39.33;37.67;;;;;;;;5045393;28;9069;-86
2021/01/16 08:55:52;;;;;;;;;39.33;37.33;;;;;;;;5061774;28;8875;-86
2021/01/16 08:58:19;;;;;;;;;39.33;38.33;;;;;;;;5062626;28;8865;-79
2021/01/16 09:00:46;;;;;;;;;41.67;39.33;;;;;;;;5057523;28;8828;-83
2021/01/16 09:03:16;;;;;;;;;37.33;35.67;;;;;;;;5067613;28;9647;-80
2021/01/16 09:05:46;;;;;;;;;43.00;42.67;;;;;;;;5062776;28;9691;-80
2021/01/16 09:08:24;;;;;;;;;42.33;42.33;;;;;;;;5069527;28;8870;-78
2021/01/16 09:10:52;;;;;;;;;39.33;39.33;;;;;;;;5064336;28;8880;-79
2021/01/16 09:13:25;;;;;;;;;41.67;41.33;;;;;;;;5065720;28;9046;-75
2021/01/16 09:15:53;;;;;;;;;43.33;42.67;;;;;;;;5064226;28;9645;-76
2021/01/16 09:18:20;;;;;;;;;44.00;42.00;;;;;;;;5063449;28;8905;-75
2021/01/16 09:20:57;;;;;;;;;42.67;39.67;;;;;;;;5050718;28;8870;-75
2021/01/16 09:23:26;;;;;;;;;46.67;41.67;;;;;;;;5055291;28;8880;-76
2021/01/16 09:25:55;;;;;;;;;40.00;38.33;;;;;;;;5063047;28;8879;-78
2021/01/16 09:28:41;;;;;;;;;36.67;35.00;;;;;;;;5056678;28;8899;-75
2021/01/16 09:31:22;;;;;;;;;32.33;32.33;;;;;;;;5040118;28;8848;-75
2021/01/16 09:33:50;;;;;;;;;31.00;30.33;;;;;;;;5061349;28;8883;-76
2021/01/16 09:36:40;;;;;;;;;40.00;39.67;;;;;;;;5058427;28;8860;-75
2021/01/16 09:39:14;;;;;;;;;36.33;34.67;;;;;;;;5063987;28;8869;-76
2021/01/16 09:41:41;;;;;;;;;41.67;39.67;;;;;;;;5056315;28;8877;-76
2021/01/16 09:44:08;;;;;;;;;28.67;28.67;;;;;;;;5059812;28;8880;-74
2021/01/16 09:46:36;;;;;;;;;31.67;30.33;;;;;;;;5059452;28;8872;-75
2021/01/16 09:49:03;;;;;;;;;33.33;33.33;;;;;;;;5061316;28;8940;-75
2021/01/16 09:51:35;;;;;;;;;23.00;21.00;;;;;;;;5063726;28;10205;-77
2021/01/16 09:54:10;;;;;;;;;26.33;26.33;;;;;;;;5057859;28;8868;-76
2021/01/16 09:56:42;;;;;;;;;32.67;30.00;;;;;;;;5055079;28;8891;-76
2021/01/16 09:59:09;;;;;;;;;28.67;28.67;;;;;;;;5052236;28;8900;-76
2021/01/16 10:01:37;;;;;;;;;29.33;29.33;;;;;;;;5055461;28;9658;-75
2021/01/16 10:04:05;;;;;;;;;30.00;27.67;;;;;;;;5053577;28;8855;-76
2021/01/16 10:06:34;;;;;;;;;30.00;28.00;;;;;;;;5055774;28;8993;-76
2021/01/16 10:09:02;;;;;;;;;27.33;27.33;;;;;;;;5063075;28;8856;-77
2021/01/16 10:11:44;;;;;;;;;36.00;36.00;;;;;;;;5058079;28;8914;-76
2021/01/16 10:14:13;;;;;;;;;30.67;30.00;;;;;;;;5063211;28;8978;-76
2021/01/16 10:16:40;;;;;;;;;16.00;16.00;;;;;;;;5062812;28;8864;-76
2021/01/16 10:19:12;;;;;;;;;29.33;29.33;;;;;;;;5054900;28;8858;-76
2021/01/16 10:21:51;;;;;;;;;32.33;31.00;;;;;;;;5058567;28;9709;-76
2021/01/16 10:24:20;;;;;;;;;30.67;29.00;;;;;;;;5058399;28;8884;-76
2021/01/16 10:26:48;;;;;;;;;37.67;37.67;;;;;;;;5052402;28;8872;-76
2021/01/16 10:29:19;;;;;;;;;35.00;32.67;;;;;;;;5054627;28;8902;-76
2021/01/16 10:31:46;;;;;;;;;35.00;33.00;;;;;;;;5048828;28;8822;-76
2021/01/16 10:34:14;;;;;;;;;22.00;21.67;;;;;;;;5052901;28;8896;-76
2021/01/16 10:36:41;;;;;;;;;35.33;35.33;;;;;;;;5048773;28;8901;-76
2021/01/16 10:39:12;;;;;;;;;36.00;36.00;;;;;;;;5056670;28;8860;-77
2021/01/16 10:41:40;;;;;;;;;35.00;35.00;;;;;;;;5058536;28;9001;-76
2021/01/16 10:44:10;;;;;;;;;33.67;31.67;;;;;;;;5055410;28;8870;-76
2021/01/16 10:46:44;;;;;;;;;35.00;35.00;;;;;;;;5033442;28;8847;-76
2021/01/16 10:49:13;;;;;;;;;44.33;37.00;;;;;;;;5039618;28;8863;-77
2021/01/16 10:51:41;;;;;;;;;41.67;39.00;;;;;;;;5059007;28;8876;-78
2021/01/16 10:54:09;;;;;;;;;30.33;30.33;;;;;;;;5046134;28;8997;-79
2021/01/16 10:56:36;;;;;;;;;39.00;39.00;;;;;;;;5061454;28;8824;-78
2021/01/16 10:59:12;;;;;;;;;43.67;41.33;;;;;;;;5039946;28;8860;-77
2021/01/16 11:01:49;;;;;;;;;41.67;40.33;;;;;;;;5055524;28;8817;-76
2021/01/16 11:04:21;;;;;;;;;41.67;38.33;;;;;;;;5056961;28;9016;-76
2021/01/16 11:06:54;;;;;;;;;40.00;40.00;;;;;;;;5055714;28;8876;-76
2021/01/16 11:10:06;;;;;;;;;44.00;43.67;;;;;;;;5051998;28;8852;-76
2021/01/16 11:12:33;;;;;;;;;42.67;40.67;;;;;;;;4968745;28;8870;-78
2021/01/16 11:15:01;;;;;;;;;28.00;28.00;;;;;;;;4976976;28;8839;-77
2021/01/16 11:17:48;;;;;;;;;48.33;45.00;;;;;;;;5014815;28;8862;-76
2021/01/16 11:20:28;;;;;;;;;39.33;37.67;;;;;;;;5053368;28;8873;-76
2021/01/16 11:23:28;;;;;;;;;43.67;41.33;;;;;;;;5052416;28;8873;-77
2021/01/16 11:25:58;;;;;;;;;40.33;40.33;;;;;;;;5020712;28;8966;-77
2021/01/16 11:28:25;;;;;;;;;39.67;36.00;;;;;;;;5059672;28;8911;-80
2021/01/16 11:31:06;;;;;;;;;46.67;44.33;;;;;;;;5040748;28;8888;-71
2021/01/16 11:33:33;;;;;;;;;34.33;34.33;;;;;;;;5051762;28;8872;-68
2021/01/16 11:36:14;;;;;;;;;34.67;34.00;;;;;;;;5057401;28;8839;-70
2021/01/16 11:38:45;;;;;;;;;42.00;41.00;;;;;;;;5054125;28;8852;-70
2021/01/16 11:41:13;;;;;;;;;46.00;43.00;;;;;;;;5059667;28;8898;-69
2021/01/16 11:43:41;;;;;;;;;40.00;40.00;;;;;;;;5057997;28;8864;-70
2021/01/16 11:46:10;;;;;;;;;34.67;33.00;;;;;;;;5050294;28;9698;-71
2021/01/16 11:48:41;;;;;;;;;41.33;41.33;;;;;;;;5052535;28;8894;-72
2021/01/16 11:51:15;;;;;;;;;46.67;45.00;;;;;;;;5056214;28;9719;-70
2021/01/16 11:53:49;;;;;;;;;51.00;48.00;;;;;;;;5051327;28;8910;-70
2021/01/16 11:56:18;;;;;;;;;85.75;65.25;;;;;;;;5050451;28;8882;-69
2021/01/16 11:58:49;;;;;;;;;47.33;45.33;;;;;;;;5054826;28;8892;-69
2021/01/16 12:01:17;;;;;;;;;37.67;37.67;;;;;;;;5050772;28;8773;-71
2021/01/16 12:03:45;;;;;;;;;34.67;34.67;;;;;;;;5050425;28;8987;-71
2021/01/16 12:06:14;;;;;;;;;107.25;75.25;;;;;;;;5053898;28;8854;-72
2021/01/16 12:08:44;;;;;;;;;37.67;37.67;;;;;;;;5056117;28;8864;-72
2021/01/16 12:11:13;;;;;;;;;36.00;32.67;;;;;;;;5059793;28;8860;-73
2021/01/16 12:13:44;;;;;;;;;42.67;40.67;;;;;;;;5053034;28;8876;-71
2021/01/16 12:16:13;;;;;;;;;36.00;36.00;;;;;;;;5054433;28;8976;-73
2021/01/16 12:18:42;;;;;;;;;35.33;35.33;;;;;;;;5054349;28;9665;-74
2021/01/16 12:21:10;;;;;;;;;36.00;33.67;;;;;;;;5058571;28;8848;-70
2021/01/16 12:23:41;;;;;;;;;36.33;36.33;;;;;;;;5048021;28;8857;-73
2021/01/16 12:26:11;;;;;;;;;32.67;32.67;;;;;;;;5050674;28;8877;-73
2021/01/16 12:28:40;;;;;;;;;44.67;44.33;;;;;;;;5050250;28;8884;-71
2021/01/16 12:31:07;;;;;;;;;44.00;39.00;;;;;;;;5049286;28;10680;-72
2021/01/16 12:33:34;;;;;;;;;39.33;39.33;;;;;;;;5058748;28;8867;-72
2021/01/16 12:36:09;;;;;;;;;47.33;44.00;;;;;;;;5018970;28;8884;-70
2021/01/16 12:38:36;;;;;;;;;43.00;43.00;;;;;;;;5016356;28;8904;-71
2021/01/16 12:41:03;;;;;;;;;45.00;43.00;;;;;;;;5019615;28;8976;-72
2021/01/16 12:43:30;;;;;;;;;33.67;33.67;;;;;;;;5009437;28;8950;-70
2021/01/16 12:45:57;;;;;;;;;35.67;35.67;;;;;;;;5016963;28;8881;-70
2021/01/16 12:48:29;;;;;;;;;39.67;38.33;;;;;;;;5015304;28;9286;-70
2021/01/16 12:50:57;;;;;;;;;50.33;45.00;;;;;;;;5020706;28;8953;-71
2021/01/16 12:53:25;;;;;;;;;41.67;41.67;;;;;;;;4999026;28;9503;-70
2021/01/16 12:55:53;;;;;;;;;39.33;37.00;;;;;;;;5020600;28;8974;-69
2021/01/16 12:58:20;;;;;;;;;40.00;40.00;;;;;;;;5015385;28;8876;-68
2021/01/16 13:00:47;;;;;;;;;47.00;43.67;;;;;;;;5008696;28;8832;-69
2021/01/16 13:03:14;;;;;;;;;21.33;19.00;;;;;;;;4995397;28;8949;-69
2021/01/16 13:05:41;;;;;;;;;37.33;36.33;;;;;;;;4999337;28;8879;-70
2021/01/16 13:08:10;;;;;;;;;43.67;40.67;;;;;;;;5000503;28;9033;-69
2021/01/16 13:10:39;;;;;;;;;37.00;32.00;;;;;;;;4997415;28;8895;-70
2021/01/16 13:13:10;;;;;;;;;41.67;41.67;;;;;;;;5000091;28;8897;-71
2021/01/16 13:15:38;;;;;;;;;40.00;40.00;;;;;;;;4994645;28;8861;-70
2021/01/16 13:18:12;;;;;;;;;35.33;33.33;;;;;;;;5002066;28;8905;-69
2021/01/16 13:20:47;;;;;;;;;33.33;33.33;;;;;;;;5002502;28;8859;-68
2021/01/16 13:23:15;;;;;;;;;41.33;41.33;;;;;;;;5000258;28;8878;-70
2021/01/16 13:25:44;;;;;;;;;35.67;32.67;;;;;;;;5003468;28;8949;-68
2021/01/16 13:28:12;;;;;;;;;30.67;30.67;;;;;;;;4996622;28;8873;-68
2021/01/16 13:30:41;;;;;;;;;28.00;27.33;;;;;;;;4999577;28;8815;-69
2021/01/16 13:33:08;;;;;;;;;36.67;35.67;;;;;;;;5001898;28;8894;-68
2021/01/16 13:35:35;;;;;;;;;29.67;29.33;;;;;;;;5001932;28;8867;-70
2021/01/16 13:38:02;;;;;;;;;38.33;37.67;;;;;;;;4995990;28;8864;-70
2021/01/16 13:40:30;;;;;;;;;38.33;38.33;;;;;;;;4998734;28;8871;-69
2021/01/16 13:43:05;;;;;;;;;33.00;33.00;;;;;;;;4999603;28;8879;-71
2021/01/16 13:45:33;;;;;;;;;33.00;31.00;;;;;;;;4997915;28;9678;-70
2021/01/16 13:48:01;;;;;;;;;34.00;34.00;;;;;;;;4983215;28;9654;-69
2021/01/16 13:50:34;;;;;;;;;38.00;38.00;;;;;;;;4991854;28;9616;-70
2021/01/16 13:53:07;;;;;;;;;34.00;34.00;;;;;;;;4982356;28;8958;-69
2021/01/16 13:55:35;;;;;;;;;29.00;25.33;;;;;;;;4982022;28;8984;-69
2021/01/16 13:58:05;;;;;;;;;27.33;27.33;;;;;;;;4980340;28;8932;-69
2021/01/16 14:00:41;;;;;;;;;30.33;30.33;;;;;;;;4983122;28;8771;-70
2021/01/16 14:03:09;;;;;;;;;34.67;34.67;;;;;;;;4986073;28;8870;-70
2021/01/16 14:05:36;;;;;;;;;34.67;34.00;;;;;;;;4980777;28;8886;-70
2021/01/16 14:08:11;;;;;;;;;24.67;24.67;;;;;;;;4983767;28;8855;-69
2021/01/16 14:10:39;;;;;;;;;36.33;35.33;;;;;;;;4989387;28;8835;-70
2021/01/16 14:13:09;;;;;;;;;33.67;33.67;;;;;;;;4992066;28;8857;-70
2021/01/16 14:15:37;;;;;;;;;44.33;41.33;;;;;;;;4981215;28;8870;-69
2021/01/16 14:18:05;;;;;;;;;15.67;15.67;;;;;;;;4964718;28;8871;-69
2021/01/16 14:20:34;;;;;;;;;36.00;36.00;;;;;;;;4977390;28;8850;-67
2021/01/16 14:23:01;;;;;;;;;26.33;24.00;;;;;;;;4983750;28;8874;-68
2021/01/16 14:25:31;;;;;;;;;28.67;28.67;;;;;;;;4983446;28;8849;-69
2021/01/16 14:27:58;;;;;;;;;27.33;25.67;;;;;;;;4986737;28;8960;-70
2021/01/16 14:30:30;;;;;;;;;31.00;30.67;;;;;;;;4981965;28;8793;-69
2021/01/16 14:33:02;;;;;;;;;30.67;30.00;;;;;;;;4981131;28;9570;-70
2021/01/16 14:35:32;;;;;;;;;23.67;23.67;;;;;;;;4981949;28;8888;-69
2021/01/16 14:38:01;;;;;;;;;25.67;25.67;;;;;;;;4981116;28;9379;-70
2021/01/16 14:40:29;;;;;;;;;25.67;25.67;;;;;;;;4979814;28;9659;-69
2021/01/16 14:43:01;;;;;;;;;29.67;29.67;;;;;;;;4974407;28;8876;-69
2021/01/16 14:45:29;;;;;;;;;29.33;29.33;;;;;;;;4996381;28;8904;-70
2021/01/16 14:48:07;;;;;;;;;21.33;21.33;;;;;;;;5021013;28;8885;-69
2021/01/16 14:50:34;;;;;;;;;28.33;26.67;;;;;;;;5019412;28;8889;-69
2021/01/16 14:53:01;;;;;;;;;25.33;25.33;;;;;;;;5020370;28;8869;-69
2021/01/16 14:55:28;;;;;;;;;21.33;21.33;;;;;;;;5019654;28;8853;-70
2021/01/16 14:57:54;;;;;;;;;30.67;30.67;;;;;;;;5019957;28;8873;-70
2021/01/16 15:00:24;;;;;;;;;30.00;30.00;;;;;;;;5017168;28;8991;-69